TAF KFWA
AMD KFWA 280734Z 2808/2906 29010KT P6SM OVC015 FM281500 28014G22KT P6SM BKN040=
METAR KFWA
WC KFWA
WS KFWA
WV KFWA